ベロオリゾンテ の空港の天気 - METARとTAF

タンクレド・ネヴェス国際空港 ( SBCF / CNF ) - ブラジル ミナスジェライス州ベロオリゾンテ
飛行場実況気象(Metar)
観測時間10/20 01:00 BRT (10/20 04:00 UTC)
風向・風速東 2m/s
視程10km以上
天気現象
なし
気温20℃
湿度78%
気圧1016hPa
METARSBCF 200400Z 10004KT CAVOK 20/16 Q1016
過去の天気等 Google飛行場航空写真 Wunderground天気予報

過去48時間のMETAR

飛行場予報(TAF)
発表時間: 10/19 19:00 BRT (10/19 22:00 UTC)
予報対象時間: 19日21時 BRT ~ 20日21時 BRT
風向・風速東南東 4m/s
視程4000m
天気現象煙霧
なし
20日10時 BRT ~ 20日12時 BRT に徐々に
風向・風速東 3m/s
視程6000m
少しの雲 雲底高度 1010m
20日17時 BRT ~ 20日19時 BRT に徐々に
風向・風速南東 9m/s
視程8000m
天気現象雷雨
全天の4割程度の雲 雲底高度 760m
少しの積乱雲 雲底高度 910m
TAF SBCF 192200Z 2000/2024 11008KT 4000 HZ NSC TN20/2008Z TX33/2020Z
BECMG 2013/2015 10005KT 6000 FEW033
BECMG 2020/2022 14018KT 8000 TSRA SCT025 FEW030CB RMK PAY